Home > Products > Valid Products > TAF

000
FTUS45 KTFX 312320
TAFGTF
TAF
KGTF 312320Z 0100/0124 22007KT P6SM SCT250
     FM012000 26012G20KT P6SM SCT250=



000
FTUS45 KTFX 312320
TAFBZN
TAF
KBZN 312320Z 0100/0124 VRB04KT P6SM FEW100
     FM010300 15007KT P6SM SKC
     FM012000 28008KT P6SM FEW100=



000
FTUS45 KTFX 312320
TAFLWT
TAF
KLWT 312320Z 0100/0124 31008KT P6SM SCT250
     FM010300 VRB05KT P6SM SKC
     FM012000 30011G20KT P6SM SKC=



000
FTUS45 KTFX 312320
TAFHLN
TAF
KHLN 312320Z 0100/0124 VRB06KT P6SM SCT250
     FM012000 28011KT P6SM FEW100=



000
FTUS45 KTFX 312320
TAFHVR
TAF
KHVR 312320Z 0100/0124 29009KT P6SM SKC
     FM012000 29010G18KT P6SM SKC=



000
FTUS45 KTFX 312320
TAFCTB
TAF
KCTB 312320Z 0100/0124 28009KT P6SM SKC
     FM012000 28015G22KT P6SM SKC=



000
FTUS45 KTFX 311720
TAFGTF
TAF
KGTF 311720Z 3118/0118 22009KT P6SM SCT250=



000
FTUS45 KTFX 311720
TAFHVR
TAF
KHVR 311720Z 3118/0118 25007KT P6SM SKC=



000
FTUS45 KTFX 311720
TAFLWT
TAF
KLWT 311720Z 3118/0118 31008KT P6SM SCT250
     FM010300 16005KT P6SM SKC=



000
FTUS45 KTFX 311720
TAFBZN
TAF
KBZN 311720Z 3118/0118 31006KT P6SM SCT100
     FM010200 15005KT P6SM SKC=



000
FTUS45 KTFX 311720
TAFCTB
TAF
KCTB 311720Z 3118/0118 27009KT P6SM SKC=



000
FTUS45 KTFX 311720
TAFHLN
TAF
KHLN 311720Z 3118/0118 VRB05KT P6SM SCT250=



000
FTUS45 KTFX 311120
TAFLWT
TAF
KLWT 311120Z 3112/0112 VRB06KT P6SM SKC
     FM311800 31008KT P6SM FEW100
     FM010300 16005KT P6SM SKC=



000
FTUS45 KTFX 311120
TAFGTF
TAF
KGTF 311120Z 3112/0112 22007KT P6SM SKC
     FM312000 27010KT P6SM FEW110
     FM010300 22007KT P6SM SKC=



000
FTUS45 KTFX 311120
TAFBZN
TAF
KBZN 311120Z 3112/0112 VRB05KT P6SM SKC
     FM311800 31006KT P6SM SCT100
     FM010200 15005KT P6SM SKC=



000
FTUS45 KTFX 311120
TAFCTB
TAF
KCTB 311120Z 3112/0112 29005KT P6SM SKC
     FM312000 28012KT P6SM FEW110
     FM010400 27007KT P6SM SKC=



000
FTUS45 KTFX 311120
TAFHVR
TAF
KHVR 311120Z 3112/0112 VRB05KT P6SM SKC
     FM311600 25007KT P6SM SKC
     FM312200 29010KT P6SM SKC
     FM010400 24006KT P6SM SKC=



000
FTUS45 KTFX 311120
TAFHLN
TAF
KHLN 311120Z 3112/0112 VRB05KT P6SM SKC
     FM311900 31008KT P6SM SCT110
     FM010300 26005KT P6SM SKC
     FM010700 VRB03KT P6SM SKC=



000
FTUS45 KTFX 310524
TAFHLN
TAF
KHLN 310524Z 3106/0106 VRB05KT P6SM SKC
     FM311900 31010KT P6SM SCT110
     FM010300 26005KT P6SM SKC=



000
FTUS45 KTFX 310524
TAFCTB
TAF
KCTB 310524Z 3106/0106 VRB06KT P6SM SKC
     FM311800 29012KT P6SM FEW110
     FM010400 25008KT P6SM SKC=



000
FTUS45 KTFX 310524
TAFGTF
TAF
KGTF 310524Z 3106/0106 22007KT P6SM SKC
     FM312000 27010KT P6SM FEW110
     FM010200 VRB06KT P6SM SKC=



000
FTUS45 KTFX 310524
TAFBZN
TAF
KBZN 310524Z 3106/0106 VRB05KT P6SM SKC
     FM311800 31006KT P6SM SCT100
     FM010200 15005KT P6SM SKC=



000
FTUS45 KTFX 310524
TAFLWT
TAF
KLWT 310524Z 3106/0106 12006KT P6SM SKC
     FM311800 31008KT P6SM FEW100
     FM010300 16005KT P6SM SKC=



000
FTUS45 KTFX 310524
TAFHVR
TAF
KHVR 310524Z 3106/0106 08005KT P6SM SKC
     FM311600 25007KT P6SM SKC
     FM312200 29010KT P6SM SKC
     FM010400 15005KT P6SM SKC=



000
FTUS45 KTFX 310524
TAFHLN
TAF
KHLN 310524Z 3106/0106 VRB05KT P6SM SKC
     FM311900 31010KT P6SM SCT110
     FM010300 26005KT P6SM SKC=



000
FTUS45 KTFX 310524
TAFCTB
TAF
KCTB 310524Z 3106/0106 VRB06KT P6SM SKC
     FM311800 29012KT P6SM FEW110
     FM010400 25008KT P6SM SKC=



000
FTUS45 KTFX 310524
TAFBZN
TAF
KBZN 310524Z 3106/0106 VRB05KT P6SM SKC
     FM311800 31006KT P6SM SCT100
     FM010200 15005KT P6SM SKC=



000
FTUS45 KTFX 310524
TAFGTF
TAF
KGTF 310524Z 3106/0106 22007KT P6SM SKC
     FM312000 27010KT P6SM FEW110
     FM010200 VRB06KT P6SM SKC=



000
FTUS45 KTFX 310524
TAFHVR
TAF
KHVR 310524Z 3106/0106 08005KT P6SM SKC
     FM311600 25007KT P6SM SKC
     FM312200 29010KT P6SM SKC
     FM010400 15005KT P6SM SKC=



000
FTUS45 KTFX 310524
TAFLWT
TAF
KLWT 310524Z 3106/0106 12006KT P6SM SKC
     FM311800 31008KT P6SM FEW100
     FM010300 16005KT P6SM SKC=



000
FTUS45 KTFX 302320
TAFGTF
TAF
KGTF 302320Z 3100/3124 21006KT P6SM SKC
     FM311900 28011G18KT P6SM SKC=



000
FTUS45 KTFX 302320
TAFHVR
TAF
KHVR 302320Z 3100/3124 24007KT P6SM SKC=



000
FTUS45 KTFX 302320
TAFHLN
TAF
KHLN 302320Z 3100/3124 VRB05KT P6SM SKC
     FM312200 30010G17KT P6SM SKC=



000
FTUS45 KTFX 302320
TAFCTB
TAF
KCTB 302320Z 3100/3124 VRB06KT P6SM SKC
     FM311800 29011G18KT P6SM SKC=



000
FTUS45 KTFX 302320
TAFLWT
TAF
KLWT 302320Z 3100/3124 VRB06KT P6SM SKC
     FM312000 31010G17KT P6SM SKC=



000
FTUS45 KTFX 302320
TAFBZN
TAF
KBZN 302320Z 3100/3124 VRB05KT P6SM SKC=



000
FTUS45 KTFX 301727
TAFLWT
TAF
KLWT 301727Z 3018/3118 VRB06KT P6SM SKC=



000
FTUS45 KTFX 301727
TAFBZN
TAF
KBZN 301727Z 3018/3118 VRB05KT P6SM SKC=



000
FTUS45 KTFX 301727
TAFCTB
TAF
KCTB 301727Z 3018/3118 VRB06KT P6SM SKC=



000
FTUS45 KTFX 301727
TAFGTF
TAF
KGTF 301727Z 3018/3118 21006KT P6SM SKC=



000
FTUS45 KTFX 301727
TAFHLN
TAF
KHLN 301727Z 3018/3118 VRB05KT P6SM SKC=



000
FTUS45 KTFX 301727
TAFHVR
TAF
KHVR 301727Z 3018/3118 26005KT P6SM SKC=



000
FTUS45 KTFX 301727
TAFLWT
TAF
KLWT 301727Z 3018/3118 VRB06KT P6SM SKC=



000
FTUS45 KTFX 301727
TAFHLN
TAF
KHLN 301727Z 3018/3118 VRB05KT P6SM SKC=



000
FTUS45 KTFX 301727
TAFHVR
TAF
KHVR 301727Z 3018/3118 26005KT P6SM SKC=



000
FTUS45 KTFX 301727
TAFGTF
TAF
KGTF 301727Z 3018/3118 21006KT P6SM SKC=



000
FTUS45 KTFX 301727
TAFBZN
TAF
KBZN 301727Z 3018/3118 VRB05KT P6SM SKC=



000
FTUS45 KTFX 301727
TAFCTB
TAF
KCTB 301727Z 3018/3118 VRB06KT P6SM SKC=



000
FTUS45 KTFX 301120
TAFBZN
TAF
KBZN 301120Z 3012/3112 VRB05KT P6SM SKC
     FM301800 VRB05KT P6SM SCT110
     FM310200 15005KT P6SM SKC=



000
FTUS45 KTFX 301120
TAFHLN
TAF
KHLN 301120Z 3012/3112 VRB05KT P6SM SKC
     FM301900 06006KT P6SM FEW110
     FM310300 25005KT P6SM SKC
     FM310800 VRB03KT P6SM SKC=



000
FTUS45 KTFX 301120
TAFHVR
TAF
KHVR 301120Z 3012/3112 VRB05KT P6SM SKC
     FM301700 26005KT P6SM SCT080
     FM302200 29007KT P6SM SKC
     FM310200 11006KT P6SM SKC=



000
FTUS45 KTFX 301120
TAFGTF
TAF
KGTF 301120Z 3012/3112 24006KT P6SM SKC
     FM310200 12007KT P6SM SKC
     FM310800 21007KT P6SM SKC=



000
FTUS45 KTFX 301120
TAFLWT
TAF
KLWT 301120Z 3012/3112 VRB06KT P6SM SKC
     FM301800 32006KT P6SM SCT090
     FM310300 14006KT P6SM SKC=



000
FTUS45 KTFX 301120
TAFCTB
TAF
KCTB 301120Z 3012/3112 VRB06KT P6SM SKC
     FM302000 25008KT P6SM SKC
     FM310800 28006KT P6SM SKC=



000
FTUS45 KTFX 300528
TAFHVR
TAF
KHVR 300528Z 3006/3106 VRB06KT P6SM FEW110
     FM301000 27006KT P6SM SKC
     FM301700 30006KT P6SM SCT080
     FM310200 11006KT P6SM SKC=



000
FTUS45 KTFX 300528
TAFCTB
TAF
KCTB 300528Z 3006/3106 32006KT P6SM SKC
     FM302000 25008KT P6SM SKC=



000
FTUS45 KTFX 300528
TAFLWT
TAF
KLWT 300528Z 3006/3106 VRB06KT P6SM SKC
     FM301900 32006KT P6SM SCT090
     FM310300 14006KT P6SM SKC=



000
FTUS45 KTFX 300528
TAFHLN
TAF
KHLN 300528Z 3006/3106 VRB03KT P6SM SKC
     FM301800 VRB06KT P6SM SCT110
     FM302000 VRB05KT P6SM SKC=



000
FTUS45 KTFX 300528
TAFGTF
TAF
KGTF 300528Z 3006/3106 23007KT P6SM SKC
     FM310200 12008KT P6SM SKC=



000
FTUS45 KTFX 300528
TAFBZN
TAF
KBZN 300528Z 3006/3106 16006KT P6SM SKC
     FM301800 30006KT P6SM SCT110
     FM310200 15005KT P6SM SKC=



000
FTUS45 KTFX 300528
TAFLWT
TAF
KLWT 300528Z 3006/3106 VRB06KT P6SM SKC
     FM301900 32006KT P6SM SCT090
     FM310300 14006KT P6SM SKC=



000
FTUS45 KTFX 300528
TAFHVR
TAF
KHVR 300528Z 3006/3106 VRB06KT P6SM FEW110
     FM301000 27006KT P6SM SKC
     FM301700 30006KT P6SM SCT080
     FM310200 11006KT P6SM SKC=



000
FTUS45 KTFX 300528
TAFHLN
TAF
KHLN 300528Z 3006/3106 VRB03KT P6SM SKC
     FM301800 VRB06KT P6SM SCT110
     FM302000 VRB05KT P6SM SKC=



000
FTUS45 KTFX 300528
TAFGTF
TAF
KGTF 300528Z 3006/3106 23007KT P6SM SKC
     FM310200 12008KT P6SM SKC=



000
FTUS45 KTFX 300528
TAFBZN
TAF
KBZN 300528Z 3006/3106 16006KT P6SM SKC
     FM301800 30006KT P6SM SCT110
     FM310200 15005KT P6SM SKC=



000
FTUS45 KTFX 300528
TAFCTB
TAF
KCTB 300528Z 3006/3106 32006KT P6SM SKC
     FM302000 25008KT P6SM SKC=



000
FTUS45 KTFX 292320
TAFHVR
TAF
KHVR 292320Z 3000/3024 23013KT P6SM SCT100
     FM300400 23007KT P6SM SKC
     FM302000 28012KT P6SM SKC=



000
FTUS45 KTFX 292320
TAFBZN
TAF
KBZN 292320Z 3000/3024 VRB06KT P6SM SKC=



000
FTUS45 KTFX 292320
TAFHLN
TAF
KHLN 292320Z 3000/3024 27014KT P6SM FEW090
     FM300200 26006KT P6SM SKC
     FM302000 26011KT P6SM SKC=



000
FTUS45 KTFX 292320
TAFGTF
TAF
KGTF 292320Z 3000/3024 24011G21KT P6SM FEW090
     FM300200 21007KT P6SM SKC
     FM302000 24011KT P6SM SKC=



000
FTUS45 KTFX 292320
TAFCTB
TAF
KCTB 292320Z 3000/3024 29015G23KT P6SM SCT100
     FM300400 26011KT P6SM SKC
     FM302000 27012KT P6SM FEW100 SCT200=



000
FTUS45 KTFX 292320
TAFLWT
TAF
KLWT 292320Z 3000/3024 30012KT P6SM FEW060
     FM300300 VRB06KT P6SM SKC
     FM302000 24012KT P6SM SKC=



000
FTUS45 KTFX 292009 AAA
TAFLWT
TAF AMD
KLWT 292009Z 2920/3018 30011KT P6SM SCT070 SCT250
     FM300200 14006KT P6SM SKC=



000
FTUS45 KTFX 292009 AAA
TAFLWT
TAF AMD
KLWT 292009Z 2920/3018 30011KT P6SM SCT070 SCT250
     FM300200 14006KT P6SM SKC=



000
FTUS45 KTFX 292008 AAA
TAFCTB
TAF AMD
KCTB 292008Z 2920/3018 27015G23KT P6SM SCT100 SCT250
     FM300200 27010KT P6SM SKC=



000
FTUS45 KTFX 292008 AAA
TAFCTB
TAF AMD
KCTB 292008Z 2920/3018 27015G23KT P6SM SCT100 SCT250
     FM300200 27010KT P6SM SKC=



000
FTUS45 KTFX 291904 AAA
TAFHVR
TAF AMD
KHVR 291904Z 2919/3018 28010G20KT P6SM SCT090 SCT250
      TEMPO 2919/2921 24011G21KT
     FM300400 23007KT P6SM SKC=



000
FTUS45 KTFX 291903 AAA
TAFHLN
TAF AMD
KHLN 291903Z 2919/3018 27010G20KT P6SM FEW090
     FM300200 26006KT P6SM SKC=



000
FTUS45 KTFX 291720
TAFHVR
TAF
KHVR 291720Z 2918/3018 28011KT P6SM SCT090 SCT250
     FM300400 23007KT P6SM SKC=



000
FTUS45 KTFX 291720
TAFGTF
TAF
KGTF 291720Z 2918/3018 26011G21KT P6SM SCT100 SCT250
     FM300200 22008KT P6SM SKC=



000
FTUS45 KTFX 291720
TAFBZN
TAF
KBZN 291720Z 2918/3018 32008KT P6SM FEW090
     FM300200 16005KT P6SM SKC=



000
FTUS45 KTFX 291720
TAFCTB
TAF
KCTB 291720Z 2918/3018 29015G23KT P6SM SCT100 SCT250
     FM300200 27010KT P6SM SKC=



000
FTUS45 KTFX 291720
TAFHLN
TAF
KHLN 291720Z 2918/3018 30008G16KT P6SM FEW090
     FM300200 26006KT P6SM SKC=



000
FTUS45 KTFX 291720
TAFBZN
TAF
KBZN 291720Z 2918/3018 32008KT P6SM FEW090
     FM300200 16005KT P6SM SKC=



000
FTUS45 KTFX 291720
TAFCTB
TAF
KCTB 291720Z 2918/3018 29015G23KT P6SM SCT100 SCT250
     FM300200 27010KT P6SM SKC=



000
FTUS45 KTFX 291720
TAFGTF
TAF
KGTF 291720Z 2918/3018 26011G21KT P6SM SCT100 SCT250
     FM300200 22008KT P6SM SKC=



000
FTUS45 KTFX 291720
TAFHLN
TAF
KHLN 291720Z 2918/3018 30008G16KT P6SM FEW090
     FM300200 26006KT P6SM SKC=



000
FTUS45 KTFX 291720
TAFLWT
TAF
KLWT 291720Z 2918/3018 30010G20KT P6SM SCT070 SCT250
     FM300200 14006KT P6SM SKC=



000
FTUS45 KTFX 291720
TAFHVR
TAF
KHVR 291720Z 2918/3018 28011KT P6SM SCT090 SCT250
     FM300400 23007KT P6SM SKC=



000
FTUS45 KTFX 291720
TAFLWT
TAF
KLWT 291720Z 2918/3018 30010G20KT P6SM SCT070 SCT250
     FM300200 14006KT P6SM SKC=



000
FTUS45 KTFX 291120
TAFGTF
TAF
KGTF 291120Z 2912/3012 23008KT P6SM SKC
     FM291800 25010KT P6SM SCT090
     FM292100 26013G20KT P6SM SKC
     FM300200 22007KT P6SM SKC=



000
FTUS45 KTFX 291120
TAFHLN
TAF
KHLN 291120Z 2912/3012 VRB06KT P6SM SKC
     FM291800 29010G17KT P6SM SCT100
     FM300200 28006KT P6SM SKC=



000
FTUS45 KTFX 291120
TAFHVR
TAF
KHVR 291120Z 2912/3012 23008KT P6SM SKC
     FM291800 28012KT P6SM SCT080
     FM300300 23007KT P6SM SKC=



000
FTUS45 KTFX 291120
TAFLWT
TAF
KLWT 291120Z 2912/3012 23006KT P6SM SKC
     FM291700 29010KT P6SM SCT080
     FM300200 VRB05KT P6SM SKC=



000
FTUS45 KTFX 291120
TAFCTB
TAF
KCTB 291120Z 2912/3012 28010KT P6SM SKC
     FM291800 27015G23KT P6SM FEW100
     FM300300 27008KT P6SM SKC=



000
FTUS45 KTFX 291120
TAFBZN
TAF
KBZN 291120Z 2912/3012 VRB06KT P6SM SKC
     FM291800 31006KT P6SM SCT090
     FM300200 16005KT P6SM SKC=



000
FTUS45 KTFX 291120
TAFLWT
TAF
KLWT 291120Z 2912/3012 23006KT P6SM SKC
     FM291700 29010KT P6SM SCT080
     FM300200 VRB05KT P6SM SKC=



000
FTUS45 KTFX 291120
TAFHVR
TAF
KHVR 291120Z 2912/3012 23008KT P6SM SKC
     FM291800 28012KT P6SM SCT080
     FM300300 23007KT P6SM SKC=



000
FTUS45 KTFX 291120
TAFGTF
TAF
KGTF 291120Z 2912/3012 23008KT P6SM SKC
     FM291800 25010KT P6SM SCT090
     FM292100 26013G20KT P6SM SKC
     FM300200 22007KT P6SM SKC=



000
FTUS45 KTFX 291120
TAFHLN
TAF
KHLN 291120Z 2912/3012 VRB06KT P6SM SKC
     FM291800 29010G17KT P6SM SCT100
     FM300200 28006KT P6SM SKC=



000
FTUS45 KTFX 291120
TAFCTB
TAF
KCTB 291120Z 2912/3012 28010KT P6SM SKC
     FM291800 27015G23KT P6SM FEW100
     FM300300 27008KT P6SM SKC=



000
FTUS45 KTFX 291120
TAFBZN
TAF
KBZN 291120Z 2912/3012 VRB06KT P6SM SKC
     FM291800 31006KT P6SM SCT090
     FM300200 16005KT P6SM SKC=



000
FTUS45 KTFX 290521
TAFGTF
TAF
KGTF 290521Z 2906/3006 23008KT P6SM SKC
     FM291800 25013G20KT P6SM FEW090
     FM300200 23008KT P6SM SKC=



000
FTUS45 KTFX 290521
TAFCTB
TAF
KCTB 290521Z 2906/3006 27012KT P6SM SKC
     FM291800 27020G28KT P6SM FEW100
     FM300300 26010KT P6SM SKC=



000
FTUS45 KTFX 290521
TAFLWT
TAF
KLWT 290521Z 2906/3006 23006KT P6SM SKC
     FM291700 29010KT P6SM SCT080
     FM300200 VRB05KT P6SM SKC=



000
FTUS45 KTFX 290521
TAFHVR
TAF
KHVR 290521Z 2906/3006 23009KT P6SM SCT100
     FM291800 26012KT P6SM SCT080
     FM300300 23006KT P6SM SCT090=



000
FTUS45 KTFX 290521
TAFBZN
TAF
KBZN 290521Z 2906/3006 VRB06KT P6SM SKC
     FM291800 30007KT P6SM SCT090
     FM300200 VRB06KT P6SM SKC=



000
FTUS45 KTFX 290521
TAFHLN
TAF
KHLN 290521Z 2906/3006 VRB06KT P6SM SKC
     FM291800 29010G17KT P6SM SCT100
     FM300200 28006KT P6SM SKC=



000
FTUS45 KTFX 290521
TAFGTF
TAF
KGTF 290521Z 2906/3006 23008KT P6SM SKC
     FM291800 25013G20KT P6SM FEW090
     FM300200 23008KT P6SM SKC=



    US Dept of Commerce
    National Oceanic and Atmospheric Administration
    National Weather Service
    1325 East West Highway
    Silver Spring, MD 20910
    Page Author: NWS Internet Services Team
Disclaimer
Information Quality
Credits
Glossary
Privacy Policy
Freedom of Information Act (FOIA)
About Us
Career Opportunities